createdAt,value
2023-01-22T00:01:40.424Z,1.65
2023-01-22T00:04:48.060Z,1.85
2023-01-22T00:07:56.156Z,1.80
2023-01-22T00:11:06.678Z,1.90
2023-01-22T00:14:12.918Z,1.77
2023-01-22T00:17:23.013Z,1.70
2023-01-22T00:20:29.127Z,1.40
2023-01-22T00:23:37.369Z,1.42
2023-01-22T00:26:49.753Z,1.15
2023-01-22T00:29:57.549Z,1.57
2023-01-22T00:33:09.876Z,1.63
2023-01-22T00:36:16.490Z,2.20
2023-01-22T00:39:27.635Z,1.60
2023-01-22T00:42:34.289Z,1.52
2023-01-22T00:45:41.738Z,1.60
2023-01-22T00:48:53.902Z,1.35
2023-01-22T00:52:02.386Z,2.08
2023-01-22T00:55:09.321Z,1.33
2023-01-22T00:58:17.884Z,1.70
2023-01-22T01:01:31.065Z,1.67
2023-01-22T01:04:42.855Z,1.73
2023-01-22T01:07:51.457Z,1.60
2023-01-22T01:11:07.305Z,1.30
2023-01-22T01:14:19.810Z,1.02
2023-01-22T01:17:26.168Z,1.50
2023-01-22T01:20:35.706Z,1.50
2023-01-22T01:23:42.882Z,1.67
2023-01-22T01:26:50.533Z,1.70
2023-01-22T01:29:58.170Z,1.65
2023-01-22T01:33:05.715Z,1.65
2023-01-22T01:36:18.267Z,1.98
2023-01-22T01:39:25.023Z,1.63
2023-01-22T01:42:34.691Z,2.30
2023-01-22T01:45:44.961Z,1.52
2023-01-22T01:49:03.009Z,1.30
2023-01-22T01:52:12.489Z,1.40
2023-01-22T01:55:20.912Z,2.08
2023-01-22T01:58:26.362Z,1.73
2023-01-22T02:01:34.412Z,1.77
2023-01-22T02:04:40.264Z,1.45
2023-01-22T02:07:56.769Z,1.42
2023-01-22T02:11:08.781Z,1.08
2023-01-22T02:14:17.339Z,1.50
2023-01-22T02:17:26.607Z,1.30
2023-01-22T02:20:42.449Z,1.33
2023-01-22T02:23:58.524Z,1.58
2023-01-22T02:27:05.497Z,1.67
2023-01-22T02:30:12.452Z,1.27
2023-01-22T02:33:20.046Z,1.63
2023-01-22T02:36:35.499Z,1.42
2023-01-22T02:39:43.313Z,1.77
2023-01-22T02:42:48.943Z,1.42
2023-01-22T02:45:55.569Z,1.60
2023-01-22T02:49:12.171Z,1.27
2023-01-22T02:52:21.340Z,1.63
2023-01-22T02:55:27.070Z,1.30
2023-01-22T02:58:36.214Z,1.70
2023-01-22T03:01:44.359Z,2.00
2023-01-22T03:04:52.256Z,2.53
2023-01-22T03:08:00.614Z,1.35
2023-01-22T03:11:08.156Z,1.98
2023-01-22T03:14:25.633Z,1.95
2023-01-22T03:17:49.523Z,1.20
2023-01-22T03:21:08.462Z,1.60
2023-01-22T03:24:21.574Z,0.90
2023-01-22T03:27:31.285Z,2.35
2023-01-22T03:30:37.809Z,1.50
2023-01-22T03:33:44.460Z,1.55
2023-01-22T03:36:54.924Z,1.20
2023-01-22T03:40:03.615Z,1.40
2023-01-22T03:43:11.862Z,1.73
2023-01-22T03:46:20.041Z,1.40
2023-01-22T03:49:26.440Z,1.73
2023-01-22T03:52:35.750Z,1.33
2023-01-22T03:55:45.667Z,1.50
2023-01-22T03:58:51.620Z,1.50
2023-01-22T04:01:57.939Z,1.40
2023-01-22T04:05:03.581Z,1.40
2023-01-22T04:08:12.612Z,1.75
2023-01-22T04:11:20.475Z,2.30
2023-01-22T04:14:29.915Z,2.10
2023-01-22T04:17:37.650Z,1.77
2023-01-22T04:20:44.128Z,1.60
2023-01-22T04:23:50.543Z,2.92
2023-01-22T04:27:00.684Z,1.90
2023-01-22T04:30:05.936Z,1.80
2023-01-22T04:33:12.484Z,1.73
2023-01-22T04:36:18.731Z,2.05
2023-01-22T04:39:27.223Z,1.92
2023-01-22T04:42:38.300Z,2.60
2023-01-22T04:45:44.327Z,2.00
2023-01-22T04:48:53.311Z,1.83
2023-01-22T04:52:01.262Z,2.63
2023-01-22T04:55:07.196Z,2.47
2023-01-22T04:58:21.499Z,2.25
2023-01-22T05:01:29.296Z,2.08
2023-01-22T05:04:36.883Z,1.95
2023-01-22T05:07:46.451Z,2.05
2023-01-22T05:10:53.658Z,2.30
2023-01-22T05:14:02.257Z,2.15
2023-01-22T05:17:10.553Z,2.05
2023-01-22T05:20:26.051Z,2.10
2023-01-22T05:23:32.207Z,2.38
2023-01-22T05:26:37.549Z,3.10
2023-01-22T05:29:46.491Z,2.30
2023-01-22T05:32:52.876Z,3.10
2023-01-22T05:36:00.689Z,2.40
2023-01-22T05:39:06.293Z,2.33
2023-01-22T05:42:16.180Z,1.85
2023-01-22T05:45:25.559Z,2.72
2023-01-22T05:48:31.245Z,2.17
2023-01-22T05:51:39.221Z,1.75
2023-01-22T05:54:47.402Z,2.00
2023-01-22T05:57:52.681Z,2.40
2023-01-22T06:01:02.662Z,2.00
2023-01-22T06:04:08.203Z,1.98
2023-01-22T06:07:15.409Z,2.70
2023-01-22T06:10:21.972Z,2.70
2023-01-22T06:13:27.789Z,2.40
2023-01-22T06:16:37.551Z,2.80
2023-01-22T06:19:43.337Z,2.83
2023-01-22T06:22:53.528Z,2.63
2023-01-22T06:26:02.886Z,3.78
2023-01-22T06:29:09.594Z,2.80
2023-01-22T06:32:18.373Z,1.83
2023-01-22T06:35:25.272Z,2.17
2023-01-22T06:38:31.122Z,2.38
2023-01-22T06:41:37.560Z,3.05
2023-01-22T06:44:43.247Z,2.78
2023-01-22T06:47:51.789Z,2.60
2023-01-22T06:51:02.676Z,2.35
2023-01-22T06:54:10.293Z,3.00
2023-01-22T06:57:20.669Z,3.50
2023-01-22T07:00:32.072Z,3.17
2023-01-22T07:03:42.732Z,2.45
2023-01-22T07:06:49.623Z,2.65
2023-01-22T07:10:05.378Z,1.90
2023-01-22T07:13:10.590Z,2.15
2023-01-22T07:16:17.770Z,2.10
2023-01-22T07:19:26.517Z,2.45
2023-01-22T07:22:33.883Z,2.60
2023-01-22T07:25:42.729Z,2.90
2023-01-22T07:28:48.585Z,2.65
2023-01-22T07:31:54.073Z,2.38
2023-01-22T07:35:02.794Z,2.95
2023-01-22T07:38:10.260Z,2.90
2023-01-22T07:41:25.442Z,2.78
2023-01-22T07:44:32.307Z,3.50
2023-01-22T07:47:40.935Z,3.92
2023-01-22T07:50:49.328Z,3.92
2023-01-22T07:53:55.705Z,4.28
2023-01-22T07:57:02.901Z,4.43
2023-01-22T08:00:10.853Z,3.00
2023-01-22T08:03:17.836Z,3.78
2023-01-22T08:06:26.472Z,2.97
2023-01-22T08:09:34.065Z,3.97
2023-01-22T08:12:46.325Z,3.08
2023-01-22T08:15:57.012Z,3.80
2023-01-22T08:19:03.799Z,3.20
2023-01-22T08:22:12.955Z,4.57
2023-01-22T08:25:18.712Z,4.32
2023-01-22T08:28:25.669Z,4.28
2023-01-22T08:31:31.863Z,3.85
2023-01-22T08:34:39.226Z,4.57
2023-01-22T08:37:48.076Z,5.20
2023-01-22T08:40:56.676Z,5.90
2023-01-22T08:44:03.763Z,4.78
2023-01-22T08:47:10.964Z,4.70
2023-01-22T08:50:18.050Z,3.90
2023-01-22T08:53:27.524Z,4.90
2023-01-22T08:56:37.474Z,4.97
2023-01-22T08:59:59.703Z,3.80
2023-01-22T09:03:06.391Z,5.20
2023-01-22T09:06:12.288Z,5.45
2023-01-22T09:09:21.682Z,16.77
2023-01-22T09:12:30.493Z,13.02
2023-01-22T09:15:40.161Z,6.25
2023-01-22T09:18:48.729Z,3.78
2023-01-22T09:21:57.267Z,4.03
2023-01-22T09:25:05.612Z,3.80
2023-01-22T09:28:13.901Z,3.75
2023-01-22T09:31:19.657Z,4.68
2023-01-22T09:34:27.470Z,7.03
2023-01-22T09:37:40.624Z,4.25
2023-01-22T09:40:59.170Z,2.70
2023-01-22T09:44:07.982Z,3.60
2023-01-22T09:47:20.189Z,4.00
2023-01-22T09:50:30.303Z,4.18
2023-01-22T09:53:38.157Z,4.07
2023-01-22T09:56:48.317Z,4.53
2023-01-22T09:59:57.984Z,4.32
2023-01-22T10:03:20.483Z,3.63
2023-01-22T10:06:37.070Z,4.15
2023-01-22T10:09:47.383Z,5.38
2023-01-22T10:13:00.236Z,4.43
2023-01-22T10:16:28.689Z,4.43
2023-01-22T10:19:38.508Z,4.50
2023-01-22T10:22:44.821Z,3.53
2023-01-22T10:25:55.409Z,3.80
2023-01-22T10:29:10.558Z,4.20
2023-01-22T10:32:20.675Z,4.75
2023-01-22T10:35:34.706Z,4.68
2023-01-22T10:38:41.717Z,3.08
2023-01-22T10:41:49.019Z,3.28
2023-01-22T10:45:14.978Z,3.20
2023-01-22T10:48:23.047Z,4.13
2023-01-22T10:51:35.684Z,3.60
2023-01-22T10:54:44.043Z,3.05
2023-01-22T10:57:56.288Z,3.97
2023-01-22T11:01:20.952Z,3.20
2023-01-22T11:04:29.469Z,3.47
2023-01-22T11:07:48.662Z,2.63
2023-01-22T11:10:57.746Z,2.83
2023-01-22T11:14:16.796Z,2.45
2023-01-22T11:17:37.903Z,2.70
2023-01-22T11:20:56.498Z,2.47
2023-01-22T11:24:07.416Z,2.55
2023-01-22T11:27:19.748Z,2.60
2023-01-22T11:30:41.163Z,2.15
2023-01-22T11:34:02.010Z,1.83
2023-01-22T11:37:11.814Z,2.78
2023-01-22T11:40:30.235Z,2.08
2023-01-22T11:43:45.239Z,2.63
2023-01-22T11:47:00.083Z,8.00
2023-01-22T11:50:29.087Z,3.83
2023-01-22T11:54:04.563Z,1.83
2023-01-22T11:57:27.796Z,1.77
2023-01-22T12:00:43.986Z,2.38
2023-01-22T12:04:16.062Z,2.30
2023-01-22T12:07:26.480Z,2.83
2023-01-22T12:10:43.459Z,4.80
2023-01-22T12:14:10.718Z,3.40
2023-01-22T12:17:36.543Z,3.10
2023-01-22T12:21:28.145Z,3.78
2023-01-22T12:24:51.456Z,3.85
2023-01-22T12:28:15.191Z,3.08
2023-01-22T12:31:26.402Z,4.15
2023-01-22T12:34:36.091Z,4.32
2023-01-22T12:41:24.488Z,4.57
2023-01-22T12:44:40.300Z,4.25
2023-01-22T12:50:55.627Z,3.58
2023-01-22T12:54:12.947Z,4.88
2023-01-22T12:57:27.349Z,5.85
2023-01-22T13:00:56.054Z,9.65
2023-01-22T13:04:11.196Z,7.43
2023-01-22T13:07:29.081Z,4.78
2023-01-22T13:10:36.525Z,5.25
2023-01-22T13:13:50.264Z,5.20
2023-01-22T13:16:59.941Z,5.03
2023-01-22T13:20:18.691Z,5.35
2023-01-22T13:23:29.073Z,5.05
2023-01-22T13:26:45.694Z,6.50
2023-01-22T13:29:54.056Z,7.97
2023-01-22T13:33:08.564Z,5.30
2023-01-22T13:36:17.592Z,5.25
2023-01-22T13:39:30.295Z,4.97
2023-01-22T13:42:43.133Z,5.03
2023-01-22T13:45:53.660Z,5.63
2023-01-22T13:49:09.191Z,8.73
2023-01-22T13:52:19.196Z,7.10
2023-01-22T13:55:27.590Z,5.18
2023-01-22T13:58:48.258Z,5.35
2023-01-22T14:01:59.628Z,5.85
2023-01-22T14:05:10.443Z,5.45
2023-01-22T14:08:30.642Z,5.60
2023-01-22T14:11:42.030Z,6.80
2023-01-22T14:14:49.858Z,9.43
2023-01-22T14:17:55.842Z,5.88
2023-01-22T14:21:01.683Z,5.70
2023-01-22T14:24:18.070Z,6.18
2023-01-22T14:27:27.430Z,6.13
2023-01-22T14:30:33.195Z,5.97
2023-01-22T14:33:39.768Z,6.68
2023-01-22T14:36:47.552Z,7.72
2023-01-22T14:40:05.259Z,7.20
2023-01-22T14:43:12.568Z,6.95
2023-01-22T14:46:22.541Z,7.27
2023-01-22T14:49:29.368Z,6.30
2023-01-22T14:52:40.562Z,6.63
2023-01-22T14:55:49.610Z,5.88
2023-01-22T14:59:07.616Z,6.20
2023-01-22T15:02:15.128Z,6.00
2023-01-22T15:05:23.849Z,6.10
2023-01-22T15:08:36.431Z,5.57
2023-01-22T15:11:47.190Z,6.57
2023-01-22T15:14:52.503Z,6.88
2023-01-22T15:17:58.907Z,6.55
2023-01-22T15:21:07.263Z,7.00
2023-01-22T15:24:14.622Z,6.90
2023-01-22T15:27:23.702Z,7.47
2023-01-22T15:30:29.763Z,6.80
2023-01-22T15:33:38.029Z,6.40
2023-01-22T15:36:49.173Z,7.03
2023-01-22T15:40:02.458Z,8.52
2023-01-22T15:43:13.713Z,6.65
2023-01-22T15:46:20.712Z,8.02
2023-01-22T15:49:31.646Z,6.63
2023-01-22T15:52:37.360Z,9.02
2023-01-22T15:55:44.984Z,8.57
2023-01-22T15:58:55.240Z,9.30
2023-01-22T16:02:02.977Z,15.25
2023-01-22T16:05:10.113Z,11.77
2023-01-22T16:08:17.578Z,8.05
2023-01-22T16:11:58.867Z,6.88
2023-01-22T16:15:14.838Z,7.68
2023-01-22T16:21:48.675Z,7.88
2023-01-22T16:25:00.400Z,9.57
2023-01-22T16:28:14.953Z,8.40
2023-01-22T16:31:29.078Z,6.75
2023-01-22T16:34:38.860Z,7.35
2023-01-22T16:37:57.035Z,7.95
2023-01-22T16:41:08.759Z,6.03
2023-01-22T16:44:16.547Z,7.75
2023-01-22T16:47:41.651Z,7.10
2023-01-22T16:50:51.763Z,7.30
2023-01-22T16:54:03.637Z,8.20
2023-01-22T16:57:11.049Z,6.68
2023-01-22T17:00:20.880Z,7.70
2023-01-22T17:03:30.958Z,7.57
2023-01-22T17:06:49.121Z,7.05
2023-01-22T17:10:06.749Z,6.97
2023-01-22T17:13:19.562Z,7.13
2023-01-22T17:16:25.578Z,7.97
2023-01-22T17:19:39.079Z,7.05
2023-01-22T17:22:56.028Z,7.13
2023-01-22T17:26:07.730Z,7.90
2023-01-22T17:29:19.430Z,8.52
2023-01-22T17:32:27.257Z,7.57
2023-01-22T17:35:37.529Z,7.75
2023-01-22T17:38:56.815Z,7.80
2023-01-22T17:42:19.577Z,9.32
2023-01-22T17:45:25.863Z,11.20
2023-01-22T17:48:33.482Z,8.25
2023-01-22T17:51:45.577Z,10.52
2023-01-22T17:54:53.385Z,9.65
2023-01-22T17:58:03.897Z,11.77
2023-01-22T18:01:11.071Z,13.13
2023-01-22T18:04:19.226Z,20.17
2023-01-22T18:07:35.730Z,20.10
2023-01-22T18:10:45.446Z,14.30
2023-01-22T18:13:58.543Z,13.88
2023-01-22T18:17:06.566Z,12.25
2023-01-22T18:20:22.573Z,12.70
2023-01-22T18:23:43.912Z,11.27
2023-01-22T18:26:58.614Z,15.65
2023-01-22T18:30:12.164Z,11.95
2023-01-22T18:33:20.908Z,11.02
2023-01-22T18:36:30.307Z,11.60
2023-01-22T18:39:49.071Z,10.52
2023-01-22T18:43:11.331Z,15.27
2023-01-22T18:46:20.753Z,13.90
2023-01-22T18:49:28.398Z,15.68
2023-01-22T18:52:39.603Z,10.55
2023-01-22T18:55:50.655Z,13.85
2023-01-22T18:58:59.397Z,12.75
2023-01-22T19:02:15.470Z,13.18
2023-01-22T19:05:30.637Z,13.95
2023-01-22T19:08:37.414Z,12.05
2023-01-22T19:11:52.345Z,11.18
2023-01-22T19:15:05.373Z,24.20
2023-01-22T19:18:16.033Z,18.95
2023-01-22T19:21:23.845Z,11.82
2023-01-22T19:24:35.573Z,9.18
2023-01-22T19:27:55.557Z,8.45
2023-01-22T19:31:04.085Z,7.82
2023-01-22T19:34:14.362Z,10.10
2023-01-22T19:40:39.561Z,7.85
2023-01-22T19:43:48.551Z,7.45
2023-01-22T19:47:03.027Z,9.70
2023-01-22T19:50:10.846Z,7.60
2023-01-22T19:53:18.728Z,8.63
2023-01-22T19:56:32.821Z,7.03
2023-01-22T19:59:53.159Z,6.50
2023-01-22T20:03:07.590Z,5.88
2023-01-22T20:06:18.292Z,6.60
2023-01-22T20:09:27.091Z,11.45
2023-01-22T20:12:35.344Z,8.38
2023-01-22T20:15:51.222Z,6.90
2023-01-22T20:19:00.870Z,22.67
2023-01-22T20:22:10.925Z,9.18
2023-01-22T20:25:21.919Z,8.27
2023-01-22T20:28:32.227Z,6.80
2023-01-22T20:31:44.893Z,7.05
2023-01-22T20:34:59.615Z,5.55
2023-01-22T20:38:06.129Z,4.85
2023-01-22T20:41:18.703Z,5.90
2023-01-22T20:44:24.090Z,4.38
2023-01-22T20:47:36.279Z,4.30
2023-01-22T20:50:44.344Z,4.18
2023-01-22T20:53:54.936Z,3.95
2023-01-22T20:57:05.106Z,4.80
2023-01-22T21:00:20.240Z,5.95
2023-01-22T21:03:36.867Z,7.45
2023-01-22T21:06:43.358Z,5.45
2023-01-22T21:09:57.161Z,7.32
2023-01-22T21:13:04.791Z,7.05
2023-01-22T21:16:26.665Z,6.47
2023-01-22T21:19:36.033Z,7.50
2023-01-22T21:22:42.535Z,12.00
2023-01-22T21:25:50.008Z,16.70
2023-01-22T21:28:59.953Z,10.75
2023-01-22T21:32:07.199Z,16.73
2023-01-22T21:35:21.212Z,10.10
2023-01-22T21:38:27.162Z,8.43
2023-01-22T21:41:36.759Z,8.27
2023-01-22T21:44:59.073Z,6.85
2023-01-22T21:48:13.738Z,11.23
2023-01-22T21:51:23.137Z,8.90
2023-01-22T21:54:30.845Z,9.70
2023-01-22T21:57:38.070Z,7.18
2023-01-22T22:00:48.067Z,11.13
2023-01-22T22:03:56.137Z,8.45
2023-01-22T22:07:17.670Z,12.40
2023-01-22T22:10:30.563Z,9.32
2023-01-22T22:13:39.907Z,8.52
2023-01-22T22:17:00.495Z,7.03
2023-01-22T22:20:10.188Z,7.18
2023-01-22T22:23:19.838Z,6.88
2023-01-22T22:26:25.825Z,10.20
2023-01-22T22:29:34.360Z,14.30
2023-01-22T22:32:44.819Z,13.90
2023-01-22T22:35:51.159Z,20.77
2023-01-22T22:39:00.166Z,11.80
2023-01-22T22:42:13.872Z,11.48
2023-01-22T22:45:23.402Z,6.75
2023-01-22T22:48:30.464Z,6.47
2023-01-22T22:51:37.810Z,5.13
2023-01-22T22:54:46.384Z,5.53
2023-01-22T22:57:52.263Z,5.95
2023-01-22T23:01:03.189Z,6.00
2023-01-22T23:04:12.665Z,5.80
2023-01-22T23:07:19.087Z,5.72
2023-01-22T23:10:35.031Z,6.43
2023-01-22T23:13:48.282Z,6.10
2023-01-22T23:16:56.406Z,6.53
2023-01-22T23:20:03.894Z,6.15
2023-01-22T23:23:14.419Z,6.10
2023-01-22T23:26:28.301Z,5.78
2023-01-22T23:29:34.429Z,7.15
2023-01-22T23:32:42.870Z,8.18
2023-01-22T23:35:53.806Z,12.18
2023-01-22T23:38:59.997Z,28.15
2023-01-22T23:42:09.293Z,19.23
2023-01-22T23:45:18.239Z,10.50
2023-01-22T23:48:24.639Z,7.75
2023-01-22T23:51:30.966Z,7.75
2023-01-22T23:54:38.412Z,6.07
2023-01-22T23:57:48.804Z,5.65
